Moneta, Wyoming
Current Conditions -  °F | °C
As of 4:53 AM on Sunday 25 Jan 2015 (Local Time) from KCPR Reporting Station
Overcast Overcast  
Wind Chill: 24°   Ceiling: 6000
Heat Index: 34°   Visibility: 10mi
Dew Point: 24°   Wind: 15mph
Humidity: 67%   Direction: 220°SW
Pressure: 30.14"   Gusts: NA
Location:  42.8668°N, 106.312°W
Report Text: KCPR 251153Z 22013KT 10SM OVC060 01/M04 A3014 RMK AO2 SLP219 T00111044 10011 21033 55002
Loading
Personal Weather Stations






























Interactive Weather Map New forecast layout! Learn more

10-Day Weather Forecast

Advertisements
Track Severe Weather on mobile